sensor_id;sensor_type;location;lat;lon;timestamp;temperature;humidity
21417;DHT22;10869;52.238;10.716;2023-02-28T18:14:35;-0.50;99.90
21417;DHT22;10869;52.238;10.716;2023-02-28T18:20:31;-0.50;99.90
21417;DHT22;10869;52.238;10.716;2023-02-28T18:26:20;-0.60;99.90
21417;DHT22;10869;52.238;10.716;2023-02-28T18:28:47;-0.70;99.90
21417;DHT22;10869;52.238;10.716;2023-02-28T18:31:56;-0.70;99.90
21417;DHT22;10869;52.238;10.716;2023-02-28T18:38:30;-0.80;99.90
21417;DHT22;10869;52.238;10.716;2023-02-28T18:47:41;-0.90;99.90
21417;DHT22;10869;52.238;10.716;2023-02-28T18:50:07;-1.00;99.90
21417;DHT22;10869;52.238;10.716;2023-02-28T18:52:33;-1.00;99.90
21417;DHT22;10869;52.238;10.716;2023-02-28T18:54:58;-1.00;99.90
21417;DHT22;10869;52.238;10.716;2023-02-28T19:00:46;-1.00;99.90
21417;DHT22;10869;52.238;10.716;2023-02-28T19:03:12;-1.10;99.90
21417;DHT22;10869;52.238;10.716;2023-02-28T19:05:38;-1.10;99.90
21417;DHT22;10869;52.238;10.716;2023-02-28T19:08:04;-1.10;99.90
21417;DHT22;10869;52.238;10.716;2023-02-28T19:13:52;-1.20;99.90
21417;DHT22;10869;52.238;10.716;2023-02-28T19:19:46;-1.20;99.90
21417;DHT22;10869;52.238;10.716;2023-02-28T19:22:11;-1.20;99.90
21417;DHT22;10869;52.238;10.716;2023-02-28T19:24:37;-1.30;99.90
21417;DHT22;10869;52.238;10.716;2023-02-28T19:27:30;-1.30;99.90
21417;DHT22;10869;52.238;10.716;2023-02-28T19:29:55;-1.30;99.90
21417;DHT22;10869;52.238;10.716;2023-02-28T19:35:46;-1.30;99.90
21417;DHT22;10869;52.238;10.716;2023-02-28T19:38:13;-1.40;99.90
21417;DHT22;10869;52.238;10.716;2023-02-28T19:44:01;-1.40;99.90
21417;DHT22;10869;52.238;10.716;2023-02-28T19:46:28;-1.40;99.90
21417;DHT22;10869;52.238;10.716;2023-02-28T19:49:12;-1.40;99.90
21417;DHT22;10869;52.238;10.716;2023-02-28T19:51:42;-1.40;99.90
21417;DHT22;10869;52.238;10.716;2023-02-28T19:57:31;-1.40;99.90
21417;DHT22;10869;52.238;10.716;2023-02-28T19:59:56;-1.40;99.90
21417;DHT22;10869;52.238;10.716;2023-02-28T20:02:22;-1.50;99.90
21417;DHT22;10869;52.238;10.716;2023-02-28T20:04:49;-1.50;99.90
21417;DHT22;10869;52.238;10.716;2023-02-28T20:07:18;-1.50;99.90
21417;DHT22;10869;52.238;10.716;2023-02-28T20:09:47;-1.50;99.90
21417;DHT22;10869;52.238;10.716;2023-02-28T20:12:16;-1.50;99.90
21417;DHT22;10869;52.238;10.716;2023-02-28T20:14:42;-1.50;99.90
21417;DHT22;10869;52.238;10.716;2023-02-28T20:17:08;-1.50;99.90
21417;DHT22;10869;52.238;10.716;2023-02-28T20:19:41;-1.40;99.90
21417;DHT22;10869;52.238;10.716;2023-02-28T20:25:29;-1.50;99.90
21417;DHT22;10869;52.238;10.716;2023-02-28T20:28:11;-1.50;99.90
21417;DHT22;10869;52.238;10.716;2023-02-28T20:30:53;-1.50;99.90
21417;DHT22;10869;52.238;10.716;2023-02-28T20:36:41;-1.60;99.90
21417;DHT22;10869;52.238;10.716;2023-02-28T20:39:06;-1.60;99.90
21417;DHT22;10869;52.238;10.716;2023-02-28T20:41:32;-1.60;99.90
21417;DHT22;10869;52.238;10.716;2023-02-28T20:43:58;-1.60;99.90
21417;DHT22;10869;52.238;10.716;2023-02-28T20:46:30;-1.60;99.90
21417;DHT22;10869;52.238;10.716;2023-02-28T20:49:12;-1.60;99.90
21417;DHT22;10869;52.238;10.716;2023-02-28T20:51:48;-1.60;99.90
21417;DHT22;10869;52.238;10.716;2023-02-28T20:54:40;-1.60;99.90
21417;DHT22;10869;52.238;10.716;2023-02-28T20:57:05;-1.50;99.90
21417;DHT22;10869;52.238;10.716;2023-02-28T21:02:53;-1.50;99.90
21417;DHT22;10869;52.238;10.716;2023-02-28T21:05:19;-1.50;99.90
21417;DHT22;10869;52.238;10.716;2023-02-28T21:07:45;-1.50;99.90
21417;DHT22;10869;52.238;10.716;2023-02-28T21:10:47;-1.50;99.90
21417;DHT22;10869;52.238;10.716;2023-02-28T21:13:13;-1.50;99.90
21417;DHT22;10869;52.238;10.716;2023-02-28T21:15:39;-1.50;99.90
21417;DHT22;10869;52.238;10.716;2023-02-28T21:18:05;-1.50;99.90
21417;DHT22;10869;52.238;10.716;2023-02-28T21:20:30;-1.50;99.90
21417;DHT22;10869;52.238;10.716;2023-02-28T21:22:56;-1.50;99.90
21417;DHT22;10869;52.238;10.716;2023-02-28T21:25:22;-1.50;99.90
21417;DHT22;10869;52.238;10.716;2023-02-28T21:27:48;-1.50;99.90
21417;DHT22;10869;52.238;10.716;2023-02-28T21:30:14;-1.50;99.90
21417;DHT22;10869;52.238;10.716;2023-02-28T21:42:46;-1.50;99.90
21417;DHT22;10869;52.238;10.716;2023-02-28T21:47:47;-1.60;99.90
21417;DHT22;10869;52.238;10.716;2023-02-28T21:50:13;-1.60;99.90
21417;DHT22;10869;52.238;10.716;2023-02-28T21:52:39;-1.60;99.90
21417;DHT22;10869;52.238;10.716;2023-02-28T21:55:06;-1.60;99.90
21417;DHT22;10869;52.238;10.716;2023-02-28T21:57:32;-1.50;99.90
21417;DHT22;10869;52.238;10.716;2023-02-28T22:00:00;-1.60;99.90
21417;DHT22;10869;52.238;10.716;2023-02-28T22:02:26;-1.60;99.90
21417;DHT22;10869;52.238;10.716;2023-02-28T22:04:52;-1.60;99.90
21417;DHT22;10869;52.238;10.716;2023-02-28T22:07:17;-1.60;99.90
21417;DHT22;10869;52.238;10.716;2023-02-28T22:09:43;-1.60;99.90
21417;DHT22;10869;52.238;10.716;2023-02-28T22:12:09;-1.70;99.90
21417;DHT22;10869;52.238;10.716;2023-02-28T22:14:35;-1.80;99.90
21417;DHT22;10869;52.238;10.716;2023-02-28T22:17:04;-1.80;99.90
21417;DHT22;10869;52.238;10.716;2023-02-28T22:19:29;-1.90;99.90
21417;DHT22;10869;52.238;10.716;2023-02-28T22:21:55;-2.00;99.90
21417;DHT22;10869;52.238;10.716;2023-02-28T22:24:21;-1.90;99.90
21417;DHT22;10869;52.238;10.716;2023-02-28T22:26:49;-1.90;99.90
21417;DHT22;10869;52.238;10.716;2023-02-28T22:29:15;-2.00;99.90
21417;DHT22;10869;52.238;10.716;2023-02-28T22:31:41;-2.00;99.90
21417;DHT22;10869;52.238;10.716;2023-02-28T22:34:09;-2.00;99.90
21417;DHT22;10869;52.238;10.716;2023-02-28T22:36:36;-1.90;99.90
21417;DHT22;10869;52.238;10.716;2023-02-28T22:39:03;-2.00;99.90
21417;DHT22;10869;52.238;10.716;2023-02-28T22:41:29;-2.00;99.90
21417;DHT22;10869;52.238;10.716;2023-02-28T22:43:57;-2.00;99.90
21417;DHT22;10869;52.238;10.716;2023-02-28T22:46:25;-2.00;99.90
21417;DHT22;10869;52.238;10.716;2023-02-28T22:48:52;-2.00;99.90
21417;DHT22;10869;52.238;10.716;2023-02-28T22:51:23;-2.00;99.90
21417;DHT22;10869;52.238;10.716;2023-02-28T22:53:51;-2.00;99.90
21417;DHT22;10869;52.238;10.716;2023-02-28T22:56:19;-2.00;99.90
21417;DHT22;10869;52.238;10.716;2023-02-28T22:58:54;-2.10;99.90
21417;DHT22;10869;52.238;10.716;2023-02-28T23:01:22;-2.10;99.90
21417;DHT22;10869;52.238;10.716;2023-02-28T23:03:48;-2.10;99.90
21417;DHT22;10869;52.238;10.716;2023-02-28T23:06:18;-2.10;99.90
21417;DHT22;10869;52.238;10.716;2023-02-28T23:08:44;-2.10;99.90
21417;DHT22;10869;52.238;10.716;2023-02-28T23:11:15;-2.20;99.90
21417;DHT22;10869;52.238;10.716;2023-02-28T23:13:41;-2.20;99.90
21417;DHT22;10869;52.238;10.716;2023-02-28T23:16:07;-2.20;99.90
21417;DHT22;10869;52.238;10.716;2023-02-28T23:18:33;-2.20;99.90
21417;DHT22;10869;52.238;10.716;2023-02-28T23:21:00;-2.20;99.90
21417;DHT22;10869;52.238;10.716;2023-02-28T23:23:26;-2.20;99.90
21417;DHT22;10869;52.238;10.716;2023-02-28T23:25:51;-2.20;99.90
21417;DHT22;10869;52.238;10.716;2023-02-28T23:28:17;-2.20;99.90
21417;DHT22;10869;52.238;10.716;2023-02-28T23:30:43;-2.30;99.90
21417;DHT22;10869;52.238;10.716;2023-02-28T23:33:09;-2.30;99.90
21417;DHT22;10869;52.238;10.716;2023-02-28T23:35:35;-2.30;99.90
21417;DHT22;10869;52.238;10.716;2023-02-28T23:38:01;-2.40;99.90
21417;DHT22;10869;52.238;10.716;2023-02-28T23:40:26;-2.40;99.90
21417;DHT22;10869;52.238;10.716;2023-02-28T23:42:52;-2.40;99.90
21417;DHT22;10869;52.238;10.716;2023-02-28T23:45:18;-2.40;99.90
21417;DHT22;10869;52.238;10.716;2023-02-28T23:47:44;-2.40;99.90
21417;DHT22;10869;52.238;10.716;2023-02-28T23:50:10;-2.40;99.90
21417;DHT22;10869;52.238;10.716;2023-02-28T23:52:36;-2.40;99.90
21417;DHT22;10869;52.238;10.716;2023-02-28T23:55:02;-2.50;99.90
21417;DHT22;10869;52.238;10.716;2023-02-28T23:57:28;-2.50;99.90
21417;DHT22;10869;52.238;10.716;2023-02-28T23:59:55;-2.50;99.90
